EFLP

Lappeenranta

Airport
ICAO code
EFLP
Summary
ICAO Region
EUR
ICAO Territory
Location

Lappeenranta,

Elevation
349 ft
Coordinates
61° 2' 41" N , 28° 8' 41" E
KCC
Metar
EFLP 282250Z AUTO 20005KT 150V220 3300 -FZRA VV003 M00/M00 Q1016

Description

Lappeenranta Airport (Finnish: Lappeenrannan lentoasema) is an international airport in Lappeenranta, Finland.

Climatology

Subarctic climate (Köppen climate classification Dfc) - long, usually very cold winters, and short, cool to mild summers.

Runways

Designator Length Width Surface Rops
6/24 2500 60 ASP No/No

Airport map

Aerial View

SKYbrary Partners:

Safety knowledge contributed by: